Time;durP1;ratioP1;P1;durP2;ratioP2;P2;SDS_P1;SDS_P2;PMS_P1;PMS_P2;Temp;Humidity;BMP_temperature;BMP_pressure;BME280_temperature;BME280_humidity;BME280_pressure;Samples;Min_cycle;Max_cycle;Signal;HPM_P1;HPM_P2
2022/05/13 00:01:21;;;;;;;4.32;3.40;;;;;;;;;;5080821;28;24819;-45
2022/05/13 00:03:46;;;;;;;3.77;3.47;;;;;;;;;;5082948;28;24421;-45
2022/05/13 00:06:12;;;;;;;4.65;3.50;;;;;;;;;;5077943;28;25037;-45
2022/05/13 00:08:37;;;;;;;3.80;3.50;;;;;;;;;;5082757;28;24436;-45
2022/05/13 00:11:03;;;;;;;3.67;3.37;;;;;;;;;;5081573;28;24418;-45
2022/05/13 00:13:29;;;;;;;3.60;3.30;;;;;;;;;;5081992;28;24531;-45
2022/05/13 00:15:54;;;;;;;3.70;3.40;;;;;;;;;;5082002;28;24499;-45
2022/05/13 00:18:20;;;;;;;4.65;3.30;;;;;;;;;;5075398;28;24407;-46
2022/05/13 00:20:45;;;;;;;4.00;3.70;;;;;;;;;;5075481;28;24436;-45
2022/05/13 00:23:10;;;;;;;3.40;3.20;;;;;;;;;;5080064;28;24410;-45
2022/05/13 00:25:36;;;;;;;3.50;3.20;;;;;;;;;;5081674;28;24437;-46
2022/05/13 00:28:01;;;;;;;4.87;3.20;;;;;;;;;;5084678;28;24425;-46
2022/05/13 00:30:28;;;;;;;3.50;3.00;;;;;;;;;;5083827;28;25004;-45
2022/05/13 00:32:53;;;;;;;3.40;3.20;;;;;;;;;;5071921;28;24422;-45
2022/05/13 00:35:19;;;;;;;3.50;3.20;;;;;;;;;;5081665;28;24437;-46
2022/05/13 00:37:44;;;;;;;4.10;3.50;;;;;;;;;;5083586;28;24425;-45
2022/05/13 00:40:11;;;;;;;3.70;3.40;;;;;;;;;;5080842;28;24425;-46
2022/05/13 00:42:36;;;;;;;3.67;3.38;;;;;;;;;;5083063;28;25032;-46
2022/05/13 00:45:02;;;;;;;4.80;3.40;;;;;;;;;;5085613;28;24466;-45
2022/05/13 00:47:27;;;;;;;4.30;3.70;;;;;;;;;;5086170;28;24441;-45
2022/05/13 00:49:54;;;;;;;4.25;3.20;;;;;;;;;;5087211;28;25045;-45
2022/05/13 00:52:19;;;;;;;4.50;3.60;;;;;;;;;;5084697;28;24935;-45
2022/05/13 00:54:44;;;;;;;5.35;3.70;;;;;;;;;;5084291;28;24434;-46
2022/05/13 00:57:13;;;;;;;4.28;3.80;;;;;;;;;;5085354;28;24941;-45
2022/05/13 00:59:40;;;;;;;4.65;3.30;;;;;;;;;;5083463;28;24434;-44
2022/05/13 01:02:06;;;;;;;4.13;3.60;;;;;;;;;;5087126;28;24475;-45
2022/05/13 01:04:31;;;;;;;4.90;3.60;;;;;;;;;;5084653;28;24483;-45
2022/05/13 01:06:58;;;;;;;3.97;3.67;;;;;;;;;;5081862;28;24430;-44
2022/05/13 01:09:25;;;;;;;3.97;3.58;;;;;;;;;;5083546;28;24434;-45
2022/05/13 01:11:52;;;;;;;4.90;3.88;;;;;;;;;;5086343;28;24426;-46
2022/05/13 01:14:22;;;;;;;3.60;3.30;;;;;;;;;;5084807;28;24848;-44
2022/05/13 01:19:31;;;;;;;5.05;3.50;;;;;;;;;;5085611;28;24405;-45
2022/05/13 01:21:58;;;;;;;4.97;3.80;;;;;;;;;;5086819;28;24775;-44
2022/05/13 01:24:23;;;;;;;4.10;3.70;;;;;;;;;;5081605;28;24527;-44
2022/05/13 01:26:48;;;;;;;3.90;3.60;;;;;;;;;;5086532;28;25208;-44
2022/05/13 01:29:13;;;;;;;4.72;3.75;;;;;;;;;;5085207;28;24507;-45
2022/05/13 01:31:39;;;;;;;3.70;3.40;;;;;;;;;;5086831;28;24511;-44
2022/05/13 01:34:08;;;;;;;4.70;3.90;;;;;;;;;;5083841;28;24426;-44
2022/05/13 01:36:34;;;;;;;4.70;3.70;;;;;;;;;;5086148;28;24429;-49
2022/05/13 01:38:59;;;;;;;3.90;3.50;;;;;;;;;;5084881;28;24424;-45
2022/05/13 01:41:25;;;;;;;3.90;3.50;;;;;;;;;;5088427;28;24997;-44
2022/05/13 01:43:51;;;;;;;5.35;3.50;;;;;;;;;;5086430;28;24485;-45
2022/05/13 01:46:16;;;;;;;3.83;3.53;;;;;;;;;;5083700;28;24457;-44
2022/05/13 01:48:42;;;;;;;4.17;3.50;;;;;;;;;;5085404;28;24991;-45
2022/05/13 01:51:07;;;;;;;3.80;3.50;;;;;;;;;;5085722;28;24441;-45
2022/05/13 01:53:32;;;;;;;3.87;3.57;;;;;;;;;;5083077;28;24424;-45
2022/05/13 01:55:58;;;;;;;3.85;3.55;;;;;;;;;;5084651;28;24463;-45
2022/05/13 01:58:24;;;;;;;5.00;4.00;;;;;;;;;;5086913;28;24424;-45
2022/05/13 02:00:50;;;;;;;5.22;4.10;;;;;;;;;;5085367;28;24506;-45
2022/05/13 02:06:00;;;;;;;5.65;3.97;;;;;;;;;;5081725;28;24417;-45
2022/05/13 02:08:25;;;;;;;4.40;4.00;;;;;;;;;;5085882;28;24506;-46
2022/05/13 02:10:51;;;;;;;4.63;3.90;;;;;;;;;;5085609;28;24414;-45
2022/05/13 02:13:16;;;;;;;4.80;4.05;;;;;;;;;;5083091;28;24422;-45
2022/05/13 02:15:41;;;;;;;4.83;4.43;;;;;;;;;;5085436;28;24423;-45
2022/05/13 02:18:07;;;;;;;4.20;3.90;;;;;;;;;;5085018;28;24427;-44
2022/05/13 02:20:32;;;;;;;4.20;3.80;;;;;;;;;;5084012;28;24725;-44
2022/05/13 02:22:58;;;;;;;5.20;4.03;;;;;;;;;;5084672;28;24425;-44
2022/05/13 02:25:23;;;;;;;5.50;4.40;;;;;;;;;;5087621;28;24469;-45
2022/05/13 02:27:48;;;;;;;4.43;4.00;;;;;;;;;;5085231;28;24458;-46
2022/05/13 02:30:14;;;;;;;3.60;3.30;;;;;;;;;;5084324;28;24572;-44
2022/05/13 02:32:40;;;;;;;3.83;3.53;;;;;;;;;;5078574;28;24445;-45
2022/05/13 02:35:05;;;;;;;4.25;3.60;;;;;;;;;;5082328;28;25437;-45
2022/05/13 02:37:30;;;;;;;4.50;3.50;;;;;;;;;;5083063;28;24418;-46
2022/05/13 02:39:56;;;;;;;3.92;3.63;;;;;;;;;;5085195;28;24510;-45
2022/05/13 02:42:21;;;;;;;4.30;3.85;;;;;;;;;;5084291;28;24843;-46
2022/05/13 02:44:46;;;;;;;5.13;3.63;;;;;;;;;;5082509;28;24429;-46
2022/05/13 02:47:11;;;;;;;4.30;3.90;;;;;;;;;;5081325;28;25108;-45
2022/05/13 02:49:37;;;;;;;4.40;4.00;;;;;;;;;;5080926;28;24498;-45
2022/05/13 02:52:02;;;;;;;4.00;3.60;;;;;;;;;;5077529;28;24794;-46
2022/05/13 02:54:27;;;;;;;3.97;3.67;;;;;;;;;;5082538;28;24556;-46
2022/05/13 02:56:52;;;;;;;3.90;3.60;;;;;;;;;;5080098;28;24542;-46
2022/05/13 02:59:17;;;;;;;4.70;3.90;;;;;;;;;;5078058;28;25006;-46
2022/05/13 03:01:42;;;;;;;4.30;4.00;;;;;;;;;;5075159;28;24552;-46
2022/05/13 03:04:08;;;;;;;4.10;3.80;;;;;;;;;;5082183;28;24521;-46
2022/05/13 03:06:33;;;;;;;4.22;3.83;;;;;;;;;;5080481;28;24576;-46
2022/05/13 03:08:58;;;;;;;4.30;3.70;;;;;;;;;;5082723;28;24434;-46
2022/05/13 03:11:23;;;;;;;3.90;3.60;;;;;;;;;;5080787;28;24498;-46
2022/05/13 03:13:49;;;;;;;4.10;3.70;;;;;;;;;;5081125;28;24454;-46
2022/05/13 03:16:18;;;;;;;4.40;3.85;;;;;;;;;;5079472;28;24554;-46
2022/05/13 03:18:43;;;;;;;4.25;3.85;;;;;;;;;;5081041;28;24797;-46
2022/05/13 03:21:09;;;;;;;4.07;3.70;;;;;;;;;;5084596;28;24978;-46
2022/05/13 03:23:34;;;;;;;5.00;4.30;;;;;;;;;;5085611;28;24429;-46
2022/05/13 03:25:59;;;;;;;4.22;3.90;;;;;;;;;;5087118;28;24406;-46
2022/05/13 03:28:24;;;;;;;4.00;3.60;;;;;;;;;;5085402;28;25010;-46
2022/05/13 03:30:50;;;;;;;4.10;3.70;;;;;;;;;;5083045;28;24456;-45
2022/05/13 03:33:15;;;;;;;4.40;3.58;;;;;;;;;;5080275;28;24418;-46
2022/05/13 03:35:41;;;;;;;4.10;3.80;;;;;;;;;;5082778;28;24422;-46
2022/05/13 03:38:06;;;;;;;3.92;3.60;;;;;;;;;;5081723;28;24574;-46
2022/05/13 03:40:31;;;;;;;4.30;3.90;;;;;;;;;;5084224;28;24478;-45
2022/05/13 03:42:56;;;;;;;4.80;4.40;;;;;;;;;;5084309;28;24959;-45
2022/05/13 03:45:22;;;;;;;4.03;3.70;;;;;;;;;;5084194;28;24513;-45
2022/05/13 03:47:49;;;;;;;4.40;4.00;;;;;;;;;;5082818;28;24430;-46
2022/05/13 03:50:14;;;;;;;4.20;3.80;;;;;;;;;;5079484;28;24420;-46
2022/05/13 03:52:39;;;;;;;4.93;3.90;;;;;;;;;;5082679;28;24432;-46
2022/05/13 03:55:05;;;;;;;4.50;3.90;;;;;;;;;;5084792;28;24533;-46
2022/05/13 03:57:31;;;;;;;4.80;4.30;;;;;;;;;;5086360;28;24932;-46
2022/05/13 03:59:57;;;;;;;4.38;4.07;;;;;;;;;;5085443;28;24785;-46
2022/05/13 04:02:22;;;;;;;4.20;3.80;;;;;;;;;;5083034;28;24417;-46
2022/05/13 04:10:15;;;;;;;4.20;3.80;;;;;;;;;;5082031;28;24599;-46
2022/05/13 04:18:08;;;;;;;4.20;3.40;;;;;;;;;;5087439;28;24463;-46
2022/05/13 04:20:35;;;;;;;3.50;3.20;;;;;;;;;;5084794;28;24427;-46
2022/05/13 04:23:00;;;;;;;3.60;3.30;;;;;;;;;;5088207;28;25073;-46
2022/05/13 04:25:26;;;;;;;4.10;3.50;;;;;;;;;;5082465;28;24434;-46
2022/05/13 04:27:51;;;;;;;3.70;3.40;;;;;;;;;;5083098;28;24960;-46
2022/05/13 04:30:17;;;;;;;3.58;3.28;;;;;;;;;;5088006;28;24540;-46
2022/05/13 04:32:42;;;;;;;5.20;3.60;;;;;;;;;;5087393;28;24426;-46
2022/05/13 04:35:07;;;;;;;4.00;3.70;;;;;;;;;;5087296;28;24433;-46
2022/05/13 04:37:32;;;;;;;4.57;4.17;;;;;;;;;;5083980;28;24422;-46
2022/05/13 04:39:57;;;;;;;5.15;4.65;;;;;;;;;;5070294;28;24421;-46
2022/05/13 04:45:07;;;;;;;3.67;3.38;;;;;;;;;;5083442;28;24522;-44
2022/05/13 04:50:16;;;;;;;3.70;3.40;;;;;;;;;;5082910;28;24483;-44
2022/05/13 04:52:42;;;;;;;4.50;3.10;;;;;;;;;;5084629;28;24956;-44
2022/05/13 04:55:08;;;;;;;3.25;3.05;;;;;;;;;;5086857;28;24487;-44
2022/05/13 04:57:33;;;;;;;5.65;3.50;;;;;;;;;;5080718;28;24480;-44
2022/05/13 04:59:58;;;;;;;3.58;3.28;;;;;;;;;;5086043;28;24988;-44
2022/05/13 05:02:23;;;;;;;4.15;3.20;;;;;;;;;;5084508;28;24417;-44
2022/05/13 05:04:48;;;;;;;3.65;3.35;;;;;;;;;;5083772;28;25020;-44
2022/05/13 05:07:13;;;;;;;4.03;3.67;;;;;;;;;;5080556;28;24430;-44
2022/05/13 05:09:39;;;;;;;3.53;3.23;;;;;;;;;;5076858;28;24433;-44
2022/05/13 05:12:05;;;;;;;3.58;3.28;;;;;;;;;;5081962;28;24833;-44
2022/05/13 05:14:30;;;;;;;4.10;3.33;;;;;;;;;;5081003;28;24907;-43
2022/05/13 05:16:55;;;;;;;4.55;3.80;;;;;;;;;;5083487;28;25104;-45
2022/05/13 05:19:20;;;;;;;5.10;3.70;;;;;;;;;;5082603;28;24428;-44
2022/05/13 05:21:46;;;;;;;4.30;3.60;;;;;;;;;;5078710;28;24410;-45
2022/05/13 05:24:11;;;;;;;4.10;3.13;;;;;;;;;;5089136;28;24494;-44
2022/05/13 05:26:36;;;;;;;3.58;3.38;;;;;;;;;;5087641;28;24959;-44
2022/05/13 05:29:02;;;;;;;3.63;3.28;;;;;;;;;;5089172;28;24585;-44
2022/05/13 05:31:27;;;;;;;3.70;3.40;;;;;;;;;;5084480;28;24521;-45
2022/05/13 05:33:52;;;;;;;5.10;4.00;;;;;;;;;;5087037;28;24517;-45
2022/05/13 05:36:17;;;;;;;7.22;4.10;;;;;;;;;;5087956;28;24952;-45
2022/05/13 05:38:42;;;;;;;5.15;3.70;;;;;;;;;;5087232;28;25092;-45
2022/05/13 05:41:07;;;;;;;6.35;3.75;;;;;;;;;;5082679;28;24426;-46
2022/05/13 05:43:35;;;;;;;5.33;3.77;;;;;;;;;;5081346;28;24785;-46
2022/05/13 05:46:00;;;;;;;4.30;4.00;;;;;;;;;;5087695;28;25246;-46
2022/05/13 05:48:26;;;;;;;5.20;3.80;;;;;;;;;;5086367;28;24610;-46
2022/05/13 05:50:51;;;;;;;4.00;3.60;;;;;;;;;;5084324;28;24754;-46
2022/05/13 05:57:13;;;;;;;4.72;3.63;;;;;;;;;;5077521;28;24785;-46
2022/05/13 05:58:46;;;;;;;4.55;3.53;;;;;;;;;;5087116;28;24638;-45
2022/05/13 06:01:12;;;;;;;4.17;3.77;;;;;;;;;;5081949;28;24648;-46
2022/05/13 06:03:37;;;;;;;4.85;4.10;;;;;;;;;;5083138;28;24831;-47
2022/05/13 06:06:04;;;;;;;4.47;3.90;;;;;;;;;;5086711;28;24425;-46
2022/05/13 06:08:29;;;;;;;4.30;3.90;;;;;;;;;;5084416;28;24502;-46
2022/05/13 06:10:54;;;;;;;3.83;3.53;;;;;;;;;;5081902;28;24449;-47
2022/05/13 06:13:19;;;;;;;4.00;3.60;;;;;;;;;;5085699;28;24429;-50
2022/05/13 06:15:44;;;;;;;3.72;3.42;;;;;;;;;;5077221;28;24913;-47
2022/05/13 06:18:10;;;;;;;4.13;3.80;;;;;;;;;;5078048;28;24425;-46
2022/05/13 06:20:35;;;;;;;3.60;3.13;;;;;;;;;;5083379;28;24444;-47
2022/05/13 06:23:00;;;;;;;3.67;3.33;;;;;;;;;;5081390;28;24959;-46
2022/05/13 06:25:26;;;;;;;3.90;3.50;;;;;;;;;;5086337;28;25089;-46
2022/05/13 06:27:51;;;;;;;3.97;3.50;;;;;;;;;;5088136;28;24497;-46
2022/05/13 06:30:18;;;;;;;4.30;3.90;;;;;;;;;;5084543;28;24445;-46
2022/05/13 06:32:43;;;;;;;5.15;3.70;;;;;;;;;;5082213;28;25289;-46
2022/05/13 06:35:09;;;;;;;4.70;4.27;;;;;;;;;;5085748;28;24519;-46
2022/05/13 06:37:34;;;;;;;4.90;3.50;;;;;;;;;;5084278;28;24422;-46
2022/05/13 06:39:59;;;;;;;4.10;3.80;;;;;;;;;;5073245;28;24536;-48
2022/05/13 06:42:25;;;;;;;6.80;4.10;;;;;;;;;;5087003;28;24945;-47
2022/05/13 06:44:50;;;;;;;4.47;4.07;;;;;;;;;;5087692;28;24514;-46
2022/05/13 06:47:15;;;;;;;4.73;4.30;;;;;;;;;;5082354;28;24437;-45
2022/05/13 06:49:41;;;;;;;4.93;4.43;;;;;;;;;;5082612;28;24776;-46
2022/05/13 06:52:06;;;;;;;6.80;4.40;;;;;;;;;;5085631;28;24479;-46
2022/05/13 06:54:31;;;;;;;5.27;3.60;;;;;;;;;;5087731;28;24987;-46
2022/05/13 06:56:56;;;;;;;4.60;4.20;;;;;;;;;;5086854;28;24758;-46
2022/05/13 06:59:22;;;;;;;5.43;4.20;;;;;;;;;;5086681;28;24414;-46
2022/05/13 07:01:47;;;;;;;4.00;3.60;;;;;;;;;;5087586;28;24467;-46
2022/05/13 07:04:12;;;;;;;4.10;3.80;;;;;;;;;;5085973;28;24597;-46
2022/05/13 07:06:38;;;;;;;4.90;4.40;;;;;;;;;;5085966;28;24505;-46
2022/05/13 07:09:03;;;;;;;4.57;4.10;;;;;;;;;;5086278;28;24401;-46
2022/05/13 07:11:29;;;;;;;5.90;3.80;;;;;;;;;;5086904;28;24445;-44
2022/05/13 07:13:54;;;;;;;4.85;3.80;;;;;;;;;;5087086;28;24459;-45
2022/05/13 07:16:19;;;;;;;5.00;4.00;;;;;;;;;;5087158;28;24390;-45
2022/05/13 07:18:46;;;;;;;3.80;3.28;;;;;;;;;;5087539;28;24473;-46
2022/05/13 07:21:12;;;;;;;3.95;3.20;;;;;;;;;;5085696;28;24422;-46
2022/05/13 07:23:37;;;;;;;3.75;3.20;;;;;;;;;;5087403;28;24767;-45
2022/05/13 07:26:02;;;;;;;4.43;3.67;;;;;;;;;;5086957;28;24501;-45
2022/05/13 07:28:27;;;;;;;4.05;3.03;;;;;;;;;;5084862;28;24393;-45
2022/05/13 07:30:53;;;;;;;4.33;3.50;;;;;;;;;;5086015;28;24446;-46
2022/05/13 07:33:19;;;;;;;5.38;3.63;;;;;;;;;;5086213;28;24959;-46
2022/05/13 07:35:44;;;;;;;4.28;3.40;;;;;;;;;;5086852;28;24435;-45
2022/05/13 07:38:10;;;;;;;3.10;2.70;;;;;;;;;;5087104;28;24540;-45
2022/05/13 07:43:19;;;;;;;3.13;2.43;;;;;;;;;;5086112;28;24455;-46
2022/05/13 07:45:44;;;;;;;3.13;2.20;;;;;;;;;;5086676;28;25084;-45
2022/05/13 07:48:09;;;;;;;2.65;2.20;;;;;;;;;;5087112;28;24379;-46
2022/05/13 07:50:34;;;;;;;4.43;2.10;;;;;;;;;;5086973;28;24409;-46
2022/05/13 07:52:59;;;;;;;2.40;1.80;;;;;;;;;;5084408;28;24426;-46
2022/05/13 07:55:25;;;;;;;3.58;1.98;;;;;;;;;;5086745;28;24965;-46
2022/05/13 07:57:50;;;;;;;3.03;2.10;;;;;;;;;;5086541;28;24399;-45
2022/05/13 08:00:25;;;;;;;2.10;1.90;;;;;;;;;;5086273;28;24465;-46
2022/05/13 08:02:55;;;;;;;3.55;1.88;;;;;;;;;;5075163;28;24497;-46
2022/05/13 08:05:20;;;;;;;1.90;1.70;;;;;;;;;;5085308;28;24429;-46
2022/05/13 08:07:45;;;;;;;3.50;2.00;;;;;;;;;;5063648;28;24434;-45
2022/05/13 08:10:11;;;;;;;2.45;1.88;;;;;;;;;;5072261;28;24449;-45
2022/05/13 08:12:36;;;;;;;3.50;2.00;;;;;;;;;;5085626;28;24401;-46
2022/05/13 08:15:02;;;;;;;4.38;2.60;;;;;;;;;;5086189;28;24425;-46
2022/05/13 08:17:31;;;;;;;3.20;2.10;;;;;;;;;;5086555;28;24390;-46
2022/05/13 08:19:58;;;;;;;2.78;2.20;;;;;;;;;;5086218;28;24417;-46
2022/05/13 08:22:23;;;;;;;3.55;2.33;;;;;;;;;;5086363;28;24756;-46
2022/05/13 08:24:48;;;;;;;3.20;2.15;;;;;;;;;;5085522;28;24418;-44
2022/05/13 08:27:13;;;;;;;3.30;2.20;;;;;;;;;;5086365;28;24421;-46
2022/05/13 08:29:38;;;;;;;3.40;2.30;;;;;;;;;;5076460;28;24595;-44
2022/05/13 08:32:04;;;;;;;3.83;2.25;;;;;;;;;;5065873;28;24894;-45
2022/05/13 08:34:29;;;;;;;2.60;2.40;;;;;;;;;;5074814;28;24458;-44
2022/05/13 08:36:55;;;;;;;4.70;2.80;;;;;;;;;;5086598;28;24499;-44
2022/05/13 08:39:20;;;;;;;3.30;2.03;;;;;;;;;;5086092;28;24393;-45
2022/05/13 08:42:00;;;;;;;3.75;2.80;;;;;;;;;;5086674;28;24417;-45
2022/05/13 08:44:25;;;;;;;3.00;2.70;;;;;;;;;;5085164;28;24510;-46
2022/05/13 08:47:00;;;;;;;2.50;2.20;;;;;;;;;;5086327;28;24537;-45
2022/05/13 08:49:46;;;;;;;2.75;2.40;;;;;;;;;;5085904;28;24999;-46
2022/05/13 08:55:10;;;;;;;2.92;2.25;;;;;;;;;;5084839;28;24469;-46
2022/05/13 08:57:38;;;;;;;4.45;2.67;;;;;;;;;;5085490;28;24935;-43
2022/05/13 09:00:06;;;;;;;4.13;2.70;;;;;;;;;;5085835;28;24434;-45
2022/05/13 09:02:36;;;;;;;2.78;2.50;;;;;;;;;;5085940;28;24477;-45
2022/05/13 09:05:07;;;;;;;5.20;3.10;;;;;;;;;;5088557;28;24455;-44
2022/05/13 09:07:32;;;;;;;3.60;2.80;;;;;;;;;;5089534;28;25073;-45
2022/05/13 09:10:03;;;;;;;3.90;2.65;;;;;;;;;;5074256;28;24509;-45
2022/05/13 09:12:35;;;;;;;2.70;2.50;;;;;;;;;;5069598;28;24448;-45
2022/05/13 09:15:09;;;;;;;4.00;2.30;;;;;;;;;;5068855;28;24499;-45
2022/05/13 09:17:39;;;;;;;4.53;2.65;;;;;;;;;;5087036;28;24414;-46
2022/05/13 09:20:08;;;;;;;4.38;2.50;;;;;;;;;;5089325;28;24469;-45
2022/05/13 09:22:36;;;;;;;6.03;3.10;;;;;;;;;;5088307;28;24414;-45
2022/05/13 09:25:01;;;;;;;7.10;3.40;;;;;;;;;;5087272;28;24940;-45
2022/05/13 09:27:26;;;;;;;2.75;2.33;;;;;;;;;;5069232;28;25234;-45
2022/05/13 09:29:51;;;;;;;3.57;2.80;;;;;;;;;;5069303;28;25012;-46
2022/05/13 09:32:27;;;;;;;3.47;2.90;;;;;;;;;;5071528;28;24433;-45
2022/05/13 09:35:01;;;;;;;5.00;3.00;;;;;;;;;;5088086;28;24501;-45
2022/05/13 09:37:26;;;;;;;3.15;2.85;;;;;;;;;;5088274;28;24517;-46
2022/05/13 09:40:07;;;;;;;3.10;2.47;;;;;;;;;;5089258;28;24493;-45
2022/05/13 09:42:37;;;;;;;2.97;2.17;;;;;;;;;;5089144;28;24386;-45
2022/05/13 09:45:17;;;;;;;3.50;2.70;;;;;;;;;;5088243;28;24982;-44
2022/05/13 09:47:44;;;;;;;6.30;2.40;;;;;;;;;;5089242;28;24395;-45
2022/05/13 09:50:29;;;;;;;3.22;2.28;;;;;;;;;;5087232;28;24427;-45
2022/05/13 09:53:00;;;;;;;3.55;2.58;;;;;;;;;;5088859;28;24430;-46
2022/05/13 09:55:27;;;;;;;3.80;2.50;;;;;;;;;;5068689;28;24418;-44
2022/05/13 09:57:52;;;;;;;5.03;2.30;;;;;;;;;;5068152;28;24485;-45
2022/05/13 10:00:22;;;;;;;2.55;2.35;;;;;;;;;;5069441;28;24498;-45
2022/05/13 10:02:50;;;;;;;3.53;2.50;;;;;;;;;;5088366;28;25030;-45
2022/05/13 10:05:17;;;;;;;4.10;2.67;;;;;;;;;;5088770;28;24386;-43
2022/05/13 10:07:48;;;;;;;3.05;2.70;;;;;;;;;;5085514;28;24539;-44
2022/05/13 10:15:49;;;;;;;5.00;2.67;;;;;;;;;;5086005;28;24401;-44
2022/05/13 10:18:20;;;;;;;3.97;2.60;;;;;;;;;;5088502;28;24769;-44
2022/05/13 10:20:46;;;;;;;3.33;2.33;;;;;;;;;;5087990;28;24941;-45
2022/05/13 10:23:21;;;;;;;3.03;2.20;;;;;;;;;;5088326;28;24405;-44
2022/05/13 10:25:56;;;;;;;3.33;1.92;;;;;;;;;;5087237;28;24556;-44
2022/05/13 10:28:24;;;;;;;4.30;2.50;;;;;;;;;;5087109;28;24448;-44
2022/05/13 10:30:56;;;;;;;4.37;2.30;;;;;;;;;;5088149;28;24572;-44
2022/05/13 10:33:30;;;;;;;6.80;2.90;;;;;;;;;;5088131;28;25057;-45
2022/05/13 10:36:02;;;;;;;2.57;2.10;;;;;;;;;;5087924;28;24455;-44
2022/05/13 10:38:34;;;;;;;4.25;2.70;;;;;;;;;;5086065;28;24437;-44
2022/05/13 10:41:07;;;;;;;4.50;2.50;;;;;;;;;;5085083;28;24998;-44
2022/05/13 10:43:37;;;;;;;4.38;2.72;;;;;;;;;;5087771;28;24534;-44
2022/05/13 10:46:12;;;;;;;2.97;2.40;;;;;;;;;;5087700;28;24548;-44
2022/05/13 10:48:37;;;;;;;6.18;2.50;;;;;;;;;;5087453;28;24390;-44
2022/05/13 10:51:02;;;;;;;3.88;2.35;;;;;;;;;;5085884;28;24522;-44
2022/05/13 10:53:34;;;;;;;2.47;1.90;;;;;;;;;;5088080;28;24397;-44
2022/05/13 10:56:07;;;;;;;4.80;2.50;;;;;;;;;;5087603;28;24448;-44
2022/05/13 10:58:42;;;;;;;4.57;2.50;;;;;;;;;;5087374;28;24386;-43
2022/05/13 11:01:19;;;;;;;3.45;2.33;;;;;;;;;;5086472;28;24530;-44
2022/05/13 11:03:54;;;;;;;3.10;2.60;;;;;;;;;;5087504;28;24943;-44
2022/05/13 11:06:34;;;;;;;4.35;2.50;;;;;;;;;;5087456;28;24826;-43
2022/05/13 11:09:03;;;;;;;3.83;2.60;;;;;;;;;;5087284;28;24387;-43
2022/05/13 11:11:33;;;;;;;5.97;2.60;;;;;;;;;;5085374;28;24426;-44
2022/05/13 11:14:17;;;;;;;4.25;2.38;;;;;;;;;;5086888;28;24530;-43
2022/05/13 11:16:48;;;;;;;5.30;2.20;;;;;;;;;;5087510;28;24932;-44
2022/05/13 11:19:26;;;;;;;2.93;2.23;;;;;;;;;;5086943;28;24411;-44
2022/05/13 11:22:00;;;;;;;3.15;2.28;;;;;;;;;;5084918;28;24441;-44
2022/05/13 11:27:20;;;;;;;2.40;1.92;;;;;;;;;;5086862;28;24459;-45
2022/05/13 11:29:49;;;;;;;3.72;2.10;;;;;;;;;;5087077;28;24394;-44
2022/05/13 11:32:17;;;;;;;2.90;2.20;;;;;;;;;;5084660;28;24430;-45
2022/05/13 11:34:51;;;;;;;5.35;2.30;;;;;;;;;;5087086;28;24410;-44
2022/05/13 11:37:17;;;;;;;4.13;2.30;;;;;;;;;;5087317;28;24454;-45
2022/05/13 11:39:44;;;;;;;4.90;2.70;;;;;;;;;;5086136;28;24406;-44
2022/05/13 11:42:18;;;;;;;4.13;2.60;;;;;;;;;;5084894;28;24418;-44
2022/05/13 11:44:49;;;;;;;3.13;2.30;;;;;;;;;;5086941;28;24428;-44
2022/05/13 11:47:18;;;;;;;2.63;2.15;;;;;;;;;;5086554;28;24506;-44
2022/05/13 11:49:46;;;;;;;2.80;1.97;;;;;;;;;;5085689;28;24426;-44
2022/05/13 11:52:11;;;;;;;4.90;2.20;;;;;;;;;;5084853;28;24828;-44
2022/05/13 11:54:36;;;;;;;5.05;2.28;;;;;;;;;;5085664;28;24801;-45
2022/05/13 11:57:23;;;;;;;2.70;2.50;;;;;;;;;;5086795;28;24390;-44
2022/05/13 11:59:53;;;;;;;3.13;2.33;;;;;;;;;;5086877;28;24489;-44
2022/05/13 12:02:38;;;;;;;3.58;2.20;;;;;;;;;;5085152;28;24394;-45
2022/05/13 12:05:03;;;;;;;2.78;2.22;;;;;;;;;;5074639;28;24979;-45
2022/05/13 12:07:30;;;;;;;3.22;2.10;;;;;;;;;;5074895;28;24999;-45
2022/05/13 12:09:56;;;;;;;3.85;2.22;;;;;;;;;;5066158;28;25002;-45
2022/05/13 12:12:31;;;;;;;3.40;2.40;;;;;;;;;;5080510;28;24557;-44
2022/05/13 12:15:05;;;;;;;4.85;2.50;;;;;;;;;;5084254;28;24525;-46
2022/05/13 12:17:49;;;;;;;4.35;2.17;;;;;;;;;;5067593;28;24989;-45
2022/05/13 12:20:14;;;;;;;5.03;2.38;;;;;;;;;;5065722;28;24521;-44
2022/05/13 12:22:39;;;;;;;3.00;2.60;;;;;;;;;;5079913;28;24434;-45
2022/05/13 12:25:12;;;;;;;3.90;2.45;;;;;;;;;;5078964;28;24492;-45
2022/05/13 12:28:01;;;;;;;5.65;2.70;;;;;;;;;;5084367;28;25286;-44
2022/05/13 12:30:29;;;;;;;4.82;2.40;;;;;;;;;;5076730;28;25036;-44
2022/05/13 12:32:54;;;;;;;3.58;2.20;;;;;;;;;;5074125;28;24474;-45
2022/05/13 12:38:21;;;;;;;4.65;2.25;;;;;;;;;;5065914;28;24390;-44
2022/05/13 12:40:52;;;;;;;4.10;2.30;;;;;;;;;;5069139;28;24415;-45
2022/05/13 12:43:19;;;;;;;4.47;2.60;;;;;;;;;;5079405;28;24423;-44
2022/05/13 12:45:59;;;;;;;4.38;2.40;;;;;;;;;;5088885;28;24457;-45
2022/05/13 12:48:24;;;;;;;3.75;2.30;;;;;;;;;;5090302;28;24556;-44
2022/05/13 12:50:50;;;;;;;3.33;2.30;;;;;;;;;;5070796;28;24572;-45
2022/05/13 12:53:30;;;;;;;5.57;2.30;;;;;;;;;;5073764;28;24545;-45
2022/05/13 12:55:56;;;;;;;4.10;2.40;;;;;;;;;;5070270;28;24410;-44
2022/05/13 12:58:21;;;;;;;4.70;2.30;;;;;;;;;;5067858;28;24394;-45
2022/05/13 13:00:48;;;;;;;4.18;2.17;;;;;;;;;;5069162;28;24507;-45
2022/05/13 13:03:13;;;;;;;3.87;2.40;;;;;;;;;;5070995;28;24402;-45
2022/05/13 13:05:42;;;;;;;3.40;2.30;;;;;;;;;;5087858;28;24441;-45
2022/05/13 13:08:15;;;;;;;5.85;2.70;;;;;;;;;;5089345;28;24471;-45
2022/05/13 13:10:51;;;;;;;3.20;2.50;;;;;;;;;;5069771;28;24387;-45
2022/05/13 13:13:23;;;;;;;4.13;2.42;;;;;;;;;;5068502;28;24480;-45
2022/05/13 13:15:54;;;;;;;4.70;2.22;;;;;;;;;;5089204;28;24461;-46
2022/05/13 13:18:27;;;;;;;3.92;2.35;;;;;;;;;;5084400;28;25132;-45
2022/05/13 13:20:55;;;;;;;3.50;2.35;;;;;;;;;;5066956;28;24411;-45
2022/05/13 13:23:21;;;;;;;7.72;2.50;;;;;;;;;;5068654;28;24423;-45
2022/05/13 13:25:48;;;;;;;5.10;2.20;;;;;;;;;;5080755;28;24853;-45
2022/05/13 13:28:19;;;;;;;2.83;2.37;;;;;;;;;;5082463;28;24482;-45
2022/05/13 13:30:51;;;;;;;5.05;2.40;;;;;;;;;;5076379;28;24453;-44
2022/05/13 13:33:16;;;;;;;2.80;2.10;;;;;;;;;;5079726;28;24964;-45
2022/05/13 13:35:43;;;;;;;3.73;2.50;;;;;;;;;;5078998;28;25021;-45
2022/05/13 13:38:10;;;;;;;4.90;2.43;;;;;;;;;;5070556;28;25435;-45
2022/05/13 13:40:37;;;;;;;5.40;2.30;;;;;;;;;;5076879;28;24403;-45
2022/05/13 13:43:20;;;;;;;7.60;2.92;;;;;;;;;;5071215;28;24535;-44
2022/05/13 13:45:47;;;;;;;6.38;2.60;;;;;;;;;;5081807;28;24445;-45
2022/05/13 13:48:16;;;;;;;9.50;2.60;;;;;;;;;;5076369;28;24980;-45
2022/05/13 13:50:47;;;;;;;8.23;2.50;;;;;;;;;;5084017;28;25096;-45
2022/05/13 13:53:16;;;;;;;6.63;2.35;;;;;;;;;;5087800;28;24422;-44
2022/05/13 13:55:42;;;;;;;5.38;2.13;;;;;;;;;;5087888;28;24490;-45
2022/05/13 13:58:15;;;;;;;6.23;2.10;;;;;;;;;;5088171;28;24401;-45
2022/05/13 14:00:41;;;;;;;10.52;2.88;;;;;;;;;;5088261;28;24489;-45
2022/05/13 14:03:08;;;;;;;7.53;2.60;;;;;;;;;;5073330;28;24431;-45
2022/05/13 14:05:34;;;;;;;6.32;2.42;;;;;;;;;;5082410;28;24426;-45
2022/05/13 14:08:00;;;;;;;10.80;3.10;;;;;;;;;;5088463;28;24410;-45
2022/05/13 14:10:28;;;;;;;4.75;2.60;;;;;;;;;;5085019;28;25035;-45
2022/05/13 14:12:53;;;;;;;10.48;3.20;;;;;;;;;;5083664;28;24503;-45
2022/05/13 14:15:20;;;;;;;9.80;3.40;;;;;;;;;;5081293;28;24464;-45
2022/05/13 14:17:48;;;;;;;4.07;3.00;;;;;;;;;;5083859;28;24413;-45
2022/05/13 14:20:14;;;;;;;4.70;2.50;;;;;;;;;;5081781;28;24422;-45
2022/05/13 14:22:58;;;;;;;5.60;3.00;;;;;;;;;;5087559;28;24447;-45
2022/05/13 14:25:31;;;;;;;8.88;3.00;;;;;;;;;;5087895;28;25365;-45
2022/05/13 14:27:56;;;;;;;4.78;2.45;;;;;;;;;;5086687;28;25036;-45
2022/05/13 14:30:29;;;;;;;5.87;3.10;;;;;;;;;;5087766;28;24518;-45
2022/05/13 14:32:55;;;;;;;5.03;2.70;;;;;;;;;;5088391;28;24413;-45
2022/05/13 14:35:27;;;;;;;4.13;2.80;;;;;;;;;;5087114;28;24465;-45
2022/05/13 14:37:57;;;;;;;6.22;2.45;;;;;;;;;;5075640;28;24421;-44
2022/05/13 14:40:41;;;;;;;4.32;2.80;;;;;;;;;;5072684;28;24429;-45
2022/05/13 14:43:09;;;;;;;3.15;2.85;;;;;;;;;;5067458;28;24952;-45
2022/05/13 14:45:35;;;;;;;4.97;2.40;;;;;;;;;;5067773;28;24425;-44
2022/05/13 14:48:27;;;;;;;4.50;2.60;;;;;;;;;;5072701;28;24436;-44
2022/05/13 14:50:58;;;;;;;6.90;2.80;;;;;;;;;;5085601;28;24488;-45
2022/05/13 14:53:25;;;;;;;8.27;2.75;;;;;;;;;;5087584;28;24452;-45
2022/05/13 14:55:54;;;;;;;4.10;2.40;;;;;;;;;;5087915;28;24832;-45
2022/05/13 14:58:22;;;;;;;5.28;3.10;;;;;;;;;;5084812;28;24590;-45
2022/05/13 15:00:48;;;;;;;5.60;2.45;;;;;;;;;;5078067;28;25049;-45
2022/05/13 15:03:20;;;;;;;7.22;3.40;;;;;;;;;;5067209;28;24528;-45
2022/05/13 15:05:46;;;;;;;7.97;4.72;;;;;;;;;;5067381;28;24403;-45
2022/05/13 15:08:30;;;;;;;5.07;3.25;;;;;;;;;;5067165;28;24486;-45
2022/05/13 15:10:55;;;;;;;5.22;3.30;;;;;;;;;;5067829;28;24798;-45
2022/05/13 15:13:24;;;;;;;7.47;5.83;;;;;;;;;;5066864;28;24414;-45
2022/05/13 15:15:50;;;;;;;4.70;3.00;;;;;;;;;;5065128;28;24591;-45
2022/05/13 15:18:17;;;;;;;4.50;2.47;;;;;;;;;;5066973;28;24463;-44
2022/05/13 15:20:42;;;;;;;4.10;2.90;;;;;;;;;;5078886;28;24437;-45
2022/05/13 15:23:07;;;;;;;6.50;2.80;;;;;;;;;;5085357;28;24471;-45
2022/05/13 15:25:33;;;;;;;4.47;2.78;;;;;;;;;;5087169;28;24410;-45
2022/05/13 15:27:58;;;;;;;6.00;3.00;;;;;;;;;;5085136;28;24429;-44